Terminal Aerodrome Forecast
Issued by NWS

Home | Current Version | Previous Version | Text Only | Print | Product List | Glossary On
Versions: 1 2 3 4 5 6 7 8 9 10 11 12 13 14
000
FTUS45 KLKN 261120
TAFTPH
TAF
KTPH 261120Z 2612/2712 01008KT P6SM FEW150
     FM261700 19015KT P6SM OVC080
     FM270400 34006KT P6SM OVC070=

USA.gov is the U.S. government's official web portal to all federal, state and local government web resources and services.